createdAt,value
2022-08-10T00:02:27.419Z,48.26
2022-08-10T00:07:30.289Z,48.39
2022-08-10T00:12:53.892Z,48.59
2022-08-10T00:17:56.223Z,48.51
2022-08-10T00:22:59.365Z,48.57
2022-08-10T00:28:04.097Z,48.71
2022-08-10T00:33:07.176Z,48.75
2022-08-10T00:38:10.893Z,49.00
2022-08-10T00:43:13.801Z,49.20
2022-08-10T00:48:16.861Z,49.50
2022-08-10T00:53:19.722Z,49.77
2022-08-10T00:58:22.945Z,49.90
2022-08-10T01:04:36.136Z,50.16
2022-08-10T01:09:06.440Z,50.25
2022-08-10T01:14:41.944Z,50.61
2022-08-10T01:20:12.138Z,50.73
2022-08-10T01:26:10.435Z,50.94
2022-08-10T01:31:21.449Z,51.02
2022-08-10T01:36:56.165Z,51.18
2022-08-10T01:42:03.293Z,51.58
2022-08-10T01:47:29.969Z,51.65
2022-08-10T01:52:35.095Z,51.81
2022-08-10T01:57:41.592Z,51.93
2022-08-10T02:02:45.749Z,52.08
2022-08-10T02:07:50.374Z,52.21
2022-08-10T02:12:56.785Z,52.34
2022-08-10T02:18:02.464Z,52.52
2022-08-10T02:23:14.516Z,52.79
2022-08-10T02:28:30.227Z,52.92
2022-08-10T02:33:37.214Z,53.32
2022-08-10T02:38:59.391Z,53.26
2022-08-10T02:45:20.000Z,53.46
2022-08-10T02:49:37.574Z,53.49
2022-08-10T02:54:51.164Z,53.65
2022-08-10T03:00:00.329Z,53.93
2022-08-10T03:05:09.612Z,53.99
2022-08-10T03:10:19.410Z,53.98
2022-08-10T03:15:23.807Z,53.88
2022-08-10T03:20:37.336Z,54.09
2022-08-10T03:25:53.798Z,54.27
2022-08-10T03:31:00.227Z,54.19
2022-08-10T03:36:40.194Z,54.37
2022-08-10T03:41:36.651Z,54.61
2022-08-10T03:46:43.068Z,54.79
2022-08-10T03:51:49.310Z,54.97
2022-08-10T03:56:53.006Z,54.84
2022-08-10T04:02:44.708Z,55.21
2022-08-10T04:07:21.565Z,55.37
2022-08-10T04:12:24.744Z,55.55
2022-08-10T04:17:56.947Z,55.65
2022-08-10T04:22:53.357Z,55.46
2022-08-10T04:27:56.981Z,55.44
2022-08-10T04:33:02.917Z,55.49
2022-08-10T04:38:06.978Z,55.49
2022-08-10T04:43:13.154Z,55.95
2022-08-10T04:48:43.249Z,55.88
2022-08-10T04:54:04.349Z,54.96
2022-08-10T04:59:03.103Z,54.77
2022-08-10T05:04:35.021Z,54.40
2022-08-10T05:09:29.299Z,54.18
2022-08-10T05:14:32.214Z,54.29
2022-08-10T05:20:03.228Z,54.51
2022-08-10T05:24:58.123Z,53.95
2022-08-10T05:30:03.158Z,53.75
2022-08-10T05:35:07.699Z,54.03
2022-08-10T05:40:11.609Z,53.92
2022-08-10T05:45:21.674Z,53.58
2022-08-10T05:50:28.443Z,52.95
2022-08-10T05:55:31.914Z,52.88
2022-08-10T06:00:42.919Z,52.56
2022-08-10T06:05:55.842Z,52.63
2022-08-10T06:12:28.354Z,52.15
2022-08-10T06:16:27.592Z,51.82
2022-08-10T06:21:32.263Z,51.77
2022-08-10T06:26:35.135Z,51.98
2022-08-10T06:31:48.458Z,51.35
2022-08-10T06:36:57.693Z,51.27
2022-08-10T06:42:16.738Z,51.59
2022-08-10T06:47:25.594Z,51.68
2022-08-10T06:52:31.111Z,52.00
2022-08-10T06:57:37.610Z,52.10
2022-08-10T07:02:51.413Z,51.80
2022-08-10T07:08:01.120Z,51.68
2022-08-10T07:13:06.667Z,51.51
2022-08-10T07:18:11.272Z,51.40
2022-08-10T07:23:55.455Z,51.15
2022-08-10T07:28:41.451Z,51.35
2022-08-10T07:33:49.346Z,51.27
2022-08-10T07:38:55.183Z,51.19
2022-08-10T07:44:04.680Z,50.85
2022-08-10T07:49:19.051Z,50.88
2022-08-10T07:54:27.509Z,50.78
2022-08-10T07:59:44.969Z,51.13
2022-08-10T08:04:48.692Z,51.40
2022-08-10T08:09:57.821Z,51.03
2022-08-10T08:16:15.919Z,50.71
2022-08-10T08:20:30.369Z,50.09
2022-08-10T08:25:33.994Z,49.60
2022-08-10T08:30:39.430Z,49.12
2022-08-10T08:35:44.230Z,48.62
2022-08-10T08:40:58.037Z,48.07
2022-08-10T08:46:38.546Z,47.50
2022-08-10T08:52:08.221Z,47.62
2022-08-10T08:57:49.140Z,47.99
2022-08-10T09:03:31.409Z,47.92
2022-08-10T09:08:58.984Z,47.52
2022-08-10T09:14:13.437Z,47.31
2022-08-10T09:19:36.231Z,46.97
2022-08-10T09:25:01.701Z,46.31
2022-08-10T09:30:08.271Z,46.26
2022-08-10T09:36:24.402Z,45.94
2022-08-10T09:41:00.337Z,45.37
2022-08-10T09:46:28.082Z,45.08
2022-08-10T09:51:46.356Z,44.62
2022-08-10T09:57:43.149Z,44.46
2022-08-10T10:02:42.895Z,44.51
2022-08-10T10:07:57.746Z,44.04
2022-08-10T10:13:12.329Z,43.86
2022-08-10T10:18:22.809Z,43.54
2022-08-10T10:24:21.411Z,43.33
2022-08-10T10:29:58.141Z,43.80
2022-08-10T10:35:04.126Z,43.34
2022-08-10T10:40:09.110Z,42.88
2022-08-10T10:45:50.396Z,42.99
2022-08-10T10:51:12.517Z,42.75
2022-08-10T10:56:37.026Z,41.83
2022-08-10T11:01:58.158Z,42.06
2022-08-10T11:07:31.976Z,41.77
2022-08-10T11:12:50.995Z,41.41
2022-08-10T11:18:21.349Z,41.47
2022-08-10T11:23:46.946Z,40.93
2022-08-10T11:29:22.826Z,40.28
2022-08-10T11:34:49.016Z,40.14
2022-08-10T11:40:12.766Z,40.00
2022-08-10T11:45:22.218Z,40.12
2022-08-10T11:50:31.330Z,40.62
2022-08-10T11:55:35.016Z,40.03
2022-08-10T12:00:40.097Z,39.58
2022-08-10T12:05:52.606Z,39.59
2022-08-10T12:10:58.979Z,40.03
2022-08-10T12:16:18.662Z,40.30
2022-08-10T12:21:27.063Z,40.00
2022-08-10T12:26:38.172Z,39.07
2022-08-10T12:31:48.437Z,39.28
2022-08-10T12:37:14.377Z,39.25
2022-08-10T12:42:38.646Z,38.71
2022-08-10T12:48:14.482Z,38.24
2022-08-10T12:53:33.612Z,37.57
2022-08-10T12:58:58.825Z,37.20
2022-08-10T13:04:23.422Z,37.18
2022-08-10T13:09:28.916Z,37.78
2022-08-10T13:14:36.979Z,37.79
2022-08-10T13:19:56.480Z,36.99
2022-08-10T13:25:05.588Z,36.37
2022-08-10T13:30:10.260Z,36.22
2022-08-10T13:35:17.753Z,35.72
2022-08-10T13:40:21.633Z,36.17
2022-08-10T13:45:27.693Z,36.72
2022-08-10T13:50:35.278Z,36.41
2022-08-10T13:55:53.809Z,35.60
2022-08-10T14:01:00.610Z,35.48
2022-08-10T14:06:07.030Z,35.43
2022-08-10T14:11:17.418Z,35.62
2022-08-10T14:16:21.300Z,36.04
2022-08-10T14:21:24.750Z,36.18
2022-08-10T14:26:32.174Z,36.10
2022-08-10T14:32:01.130Z,35.74
2022-08-10T14:37:08.865Z,35.46
2022-08-10T14:42:34.255Z,35.24
2022-08-10T14:47:52.093Z,34.96
2022-08-10T14:52:59.733Z,34.74
2022-08-10T14:58:16.656Z,34.21
2022-08-10T15:04:01.287Z,34.22
2022-08-10T15:08:52.681Z,34.23
2022-08-10T15:14:14.971Z,34.27
2022-08-10T15:20:01.520Z,34.39
2022-08-10T15:25:00.414Z,34.66
2022-08-10T15:30:05.718Z,34.97
2022-08-10T15:35:29.792Z,35.03
2022-08-10T15:40:49.667Z,34.77
2022-08-10T15:45:59.296Z,34.67
2022-08-10T15:51:06.357Z,34.63
2022-08-10T15:56:15.215Z,34.55
2022-08-10T16:02:04.290Z,34.53
2022-08-10T16:07:01.001Z,34.36
2022-08-10T16:12:16.165Z,34.37
2022-08-10T16:17:22.441Z,34.43
2022-08-10T16:22:34.286Z,34.71
2022-08-10T16:27:43.110Z,34.89
2022-08-10T16:32:49.930Z,35.09
2022-08-10T16:37:59.861Z,35.13
2022-08-10T16:43:07.370Z,35.16
2022-08-10T16:48:13.887Z,35.33
2022-08-10T16:53:19.864Z,35.32
2022-08-10T16:58:29.358Z,35.42
2022-08-10T17:04:07.651Z,35.30
2022-08-10T17:09:07.336Z,35.42
2022-08-10T17:14:11.463Z,35.67
2022-08-10T17:19:18.347Z,35.57
2022-08-10T17:24:27.232Z,35.63
2022-08-10T17:29:57.642Z,35.49
2022-08-10T17:34:57.965Z,35.81
2022-08-10T17:40:08.577Z,35.78
2022-08-10T17:45:46.345Z,35.86
2022-08-10T17:50:51.829Z,35.93
2022-08-10T17:55:57.862Z,36.11
2022-08-10T18:01:40.999Z,36.15
2022-08-10T18:06:27.581Z,36.26
2022-08-10T18:11:35.147Z,36.35
2022-08-10T18:16:41.991Z,36.23
2022-08-10T18:21:48.239Z,36.38
2022-08-10T18:26:53.898Z,36.57
2022-08-10T18:32:00.676Z,36.68
2022-08-10T18:37:08.014Z,36.85
2022-08-10T18:42:18.485Z,36.98
2022-08-10T18:47:32.742Z,37.00
2022-08-10T18:52:38.441Z,37.10
2022-08-10T18:57:53.838Z,37.23
2022-08-10T19:03:30.517Z,37.50
2022-08-10T19:08:49.179Z,37.55
2022-08-10T19:14:28.842Z,37.66
2022-08-10T19:19:46.560Z,37.86
2022-08-10T19:25:14.602Z,38.15
2022-08-10T19:30:19.640Z,38.71
2022-08-10T19:35:31.956Z,38.64
2022-08-10T19:40:44.196Z,38.64
2022-08-10T19:46:16.070Z,38.69
2022-08-10T19:51:33.488Z,38.83
2022-08-10T19:56:57.307Z,39.07
2022-08-10T20:02:01.109Z,39.34
2022-08-10T20:07:21.234Z,39.48
2022-08-10T20:12:58.283Z,39.75
2022-08-10T20:18:17.309Z,39.87
2022-08-10T20:23:35.305Z,40.13
2022-08-10T20:28:43.520Z,40.26
2022-08-10T20:34:21.530Z,40.48
2022-08-10T20:39:46.857Z,40.68
2022-08-10T20:45:11.816Z,40.95
2022-08-10T20:50:37.229Z,41.24
2022-08-10T20:56:08.558Z,41.40
2022-08-10T21:01:22.537Z,41.59
2022-08-10T21:07:02.344Z,41.76
2022-08-10T21:12:36.924Z,41.86
2022-08-10T21:18:04.408Z,42.01
2022-08-10T21:23:09.177Z,42.23
2022-08-10T21:28:25.203Z,42.36
2022-08-10T21:33:39.422Z,42.63
2022-08-10T21:39:02.544Z,42.86
2022-08-10T21:44:36.563Z,43.01
2022-08-10T21:50:18.115Z,43.11
2022-08-10T21:56:14.348Z,43.32
2022-08-10T22:01:47.741Z,43.56
2022-08-10T22:07:17.579Z,43.68
2022-08-10T22:12:50.183Z,43.80
2022-08-10T22:18:12.066Z,43.92
2022-08-10T22:23:57.789Z,43.94
2022-08-10T22:29:27.346Z,43.98
2022-08-10T22:35:19.444Z,44.22
2022-08-10T22:40:43.302Z,44.20
2022-08-10T22:46:13.036Z,44.44
2022-08-10T22:51:20.828Z,44.54
2022-08-10T22:56:43.799Z,44.58
2022-08-10T23:02:08.743Z,44.76
2022-08-10T23:07:23.628Z,44.86
2022-08-10T23:12:47.643Z,45.02
2022-08-10T23:18:14.631Z,45.20
2022-08-10T23:23:24.408Z,45.19
2022-08-10T23:28:38.634Z,45.28
2022-08-10T23:33:59.638Z,45.34
2022-08-10T23:39:24.022Z,45.54
2022-08-10T23:44:35.855Z,45.69
2022-08-10T23:49:40.210Z,45.91
2022-08-10T23:54:49.807Z,46.16
